Time;durP1;ratioP1;P1;durP2;ratioP2;P2;SDS_P1;SDS_P2;PMS_P1;PMS_P2;Temp;Humidity;BMP_temperature;BMP_pressure;BME280_temperature;BME280_humidity;BME280_pressure;Samples;Min_cycle;Max_cycle;Signal;HPM_P1;HPM_P2
2024/02/11 00:01:28;;;;;;;935.13;803.70;;;8.80;99.90;;;;;;5054809;28;20447;-68
2024/02/11 00:03:55;;;;;;;945.00;822.80;;;8.90;99.90;;;;;;5055109;28;20473;-67
2024/02/11 00:06:23;;;;;;;930.80;824.23;;;8.90;99.90;;;;;;5054850;28;20505;-68
2024/02/11 00:08:51;;;;;;;952.40;837.97;;;8.90;99.90;;;;;;5054627;28;20443;-68
2024/02/11 00:11:18;;;;;;;938.37;822.50;;;8.90;99.90;;;;;;5054851;28;20538;-68
2024/02/11 00:13:45;;;;;;;941.47;816.47;;;8.90;99.90;;;;;;5057644;28;20467;-67
2024/02/11 00:16:14;;;;;;;928.87;812.37;;;8.90;99.90;;;;;;5054310;28;20581;-68
2024/02/11 00:18:42;;;;;;;930.23;818.47;;;8.90;99.90;;;;;;5052683;28;20478;-68
2024/02/11 00:21:09;;;;;;;939.97;831.23;;;9.00;99.90;;;;;;5060094;28;20966;-68
2024/02/11 00:23:37;;;;;;;936.60;819.87;;;8.90;99.90;;;;;;5054276;28;20925;-68
2024/02/11 00:26:05;;;;;;;936.37;833.00;;;9.00;99.90;;;;;;5054360;28;20504;-68
2024/02/11 00:28:32;;;;;;;935.50;832.00;;;9.00;99.90;;;;;;5061754;28;20450;-68
2024/02/11 00:31:03;;;;;;;980.30;876.13;;;9.00;99.90;;;;;;5054080;28;20452;-66
2024/02/11 00:33:32;;;;;;;966.90;863.63;;;9.10;99.90;;;;;;5052307;28;20502;-69
2024/02/11 00:35:59;;;;;;;976.10;873.03;;;9.10;99.90;;;;;;5050791;28;20857;-68
2024/02/11 00:38:26;;;;;;;967.40;864.60;;;9.10;99.90;;;;;;5053171;28;20471;-67
2024/02/11 00:40:53;;;;;;;973.90;871.80;;;9.10;99.90;;;;;;5054963;28;20447;-68
2024/02/11 00:43:20;;;;;;;986.73;883.83;;;9.20;99.90;;;;;;5053750;28;20463;-67
2024/02/11 00:45:47;;;;;;;972.60;870.27;;;9.20;99.90;;;;;;5054020;28;20840;-68
2024/02/11 00:48:13;;;;;;;966.17;864.53;;;9.20;99.90;;;;;;5053470;28;20448;-68
2024/02/11 00:50:42;;;;;;;965.47;863.57;;;9.20;99.90;;;;;;5053952;28;20453;-68
2024/02/11 00:53:08;;;;;;;965.50;863.30;;;9.30;99.90;;;;;;5063881;28;20909;-68
2024/02/11 00:55:36;;;;;;;944.97;843.50;;;9.30;99.90;;;;;;5054428;28;20451;-67
2024/02/11 00:58:03;;;;;;;949.37;847.20;;;9.30;99.90;;;;;;5055311;28;20552;-68
2024/02/11 01:00:30;;;;;;;954.67;852.77;;;9.30;99.90;;;;;;5056610;28;20955;-68
2024/02/11 01:02:57;;;;;;;941.53;840.03;;;9.30;99.90;;;;;;5052220;28;20467;-68
2024/02/11 01:05:24;;;;;;;937.13;835.57;;;9.40;99.90;;;;;;5052727;28;20533;-68
2024/02/11 01:07:52;;;;;;;926.70;824.70;;;9.30;99.90;;;;;;5053469;28;20443;-67
2024/02/11 01:10:21;;;;;;;924.93;817.07;;;9.20;99.90;;;;;;5053487;28;20986;-68
2024/02/11 01:12:48;;;;;;;932.90;831.00;;;9.20;99.90;;;;;;5053068;28;20463;-67
2024/02/11 01:15:16;;;;;;;962.67;860.27;;;9.10;99.90;;;;;;5053600;28;20447;-68
2024/02/11 01:17:44;;;;;;;967.93;864.67;;;9.10;99.90;;;;;;5053286;28;20451;-68
2024/02/11 01:20:13;;;;;;;952.90;850.30;;;9.10;99.90;;;;;;5052038;28;20811;-68
2024/02/11 01:22:43;;;;;;;957.93;855.23;;;9.10;99.90;;;;;;5051943;28;20550;-67
2024/02/11 01:25:18;;;;;;;963.30;862.40;;;9.10;99.90;;;;;;5059236;28;20459;-68
2024/02/11 01:27:45;;;;;;;951.57;849.50;;;9.20;99.90;;;;;;5053174;28;20530;-68
2024/02/11 01:30:13;;;;;;;932.03;830.70;;;9.20;99.90;;;;;;5052665;28;20451;-67
2024/02/11 01:32:40;;;;;;;943.43;843.00;;;9.20;99.90;;;;;;5052488;28;20513;-68
2024/02/11 01:35:08;;;;;;;940.53;839.77;;;9.10;99.90;;;;;;5050677;28;20452;-68
2024/02/11 01:37:40;;;;;;;951.23;849.80;;;9.10;99.90;;;;;;5050952;28;20447;-67
2024/02/11 01:40:08;;;;;;;942.47;840.47;;;9.10;99.90;;;;;;5050640;28;20497;-67
2024/02/11 01:42:38;;;;;;;942.47;840.00;;;9.10;99.90;;;;;;5056284;28;20842;-69
2024/02/11 01:45:07;;;;;;;945.60;844.60;;;9.10;99.90;;;;;;5050241;28;20562;-68
2024/02/11 01:47:35;;;;;;;947.00;846.07;;;9.10;99.90;;;;;;5052534;28;20447;-68
2024/02/11 01:50:06;;;;;;;945.97;843.27;;;9.10;99.90;;;;;;5059318;28;20497;-68
2024/02/11 01:52:34;;;;;;;953.77;852.23;;;9.10;99.90;;;;;;5051569;28;20455;-67
2024/02/11 01:55:01;;;;;;;960.40;858.30;;;9.10;99.90;;;;;;5062928;28;20447;-68
2024/02/11 01:57:28;;;;;;;950.80;848.73;;;9.10;99.90;;;;;;5052615;28;20443;-68
2024/02/11 01:59:57;;;;;;;931.47;829.57;;;9.10;99.90;;;;;;5050998;28;20501;-68
2024/02/11 02:02:27;;;;;;;927.70;827.43;;;9.20;99.90;;;;;;5051603;28;20549;-68
2024/02/11 02:04:55;;;;;;;934.13;833.90;;;9.20;99.90;;;;;;5050226;28;20449;-67
2024/02/11 02:07:21;;;;;;;934.00;833.80;;;9.30;99.90;;;;;;5055270;28;20443;-66
2024/02/11 02:09:52;;;;;;;932.57;833.37;;;9.30;99.90;;;;;;5053489;28;20454;-68
2024/02/11 02:12:20;;;;;;;932.03;832.13;;;9.30;99.90;;;;;;5052211;28;20463;-67
2024/02/11 02:14:48;;;;;;;940.70;839.40;;;9.40;99.90;;;;;;5051729;28;20478;-67
2024/02/11 02:17:16;;;;;;;926.33;824.47;;;9.30;99.90;;;;;;5052523;28;20451;-67
2024/02/11 02:19:43;;;;;;;933.30;831.20;;;9.30;99.90;;;;;;5052649;28;20483;-67
2024/02/11 02:22:12;;;;;;;944.53;842.37;;;9.30;99.90;;;;;;5052227;28;20451;-67
2024/02/11 02:24:38;;;;;;;956.60;854.00;;;9.40;99.90;;;;;;5052393;28;20972;-66
2024/02/11 02:27:06;;;;;;;950.83;848.70;;;9.30;99.90;;;;;;5052445;28;20512;-66
2024/02/11 02:29:33;;;;;;;940.30;838.93;;;9.30;99.90;;;;;;5050066;28;20505;-66
2024/02/11 02:32:00;;;;;;;957.70;854.77;;;9.30;99.90;;;;;;5052186;28;20448;-66
2024/02/11 02:34:27;;;;;;;983.97;880.80;;;9.30;99.90;;;;;;5052573;28;20856;-67
2024/02/11 02:36:54;;;;;;;963.57;861.47;;;9.20;99.90;;;;;;5044189;28;20491;-66
2024/02/11 02:39:22;;;;;;;963.23;861.30;;;9.20;99.90;;;;;;5052100;28;20486;-65
2024/02/11 02:41:49;;;;;;;961.63;859.67;;;9.20;99.90;;;;;;5045907;28;20448;-66
2024/02/11 02:44:16;;;;;;;982.47;880.27;;;9.20;99.90;;;;;;5052343;28;20471;-67
2024/02/11 02:46:43;;;;;;;978.23;877.47;;;9.10;99.90;;;;;;5052154;28;20462;-67
2024/02/11 02:49:12;;;;;;;967.73;867.43;;;9.10;99.90;;;;;;5052027;28;20554;-66
2024/02/11 02:51:39;;;;;;;970.73;870.73;;;9.10;99.90;;;;;;5051380;28;20458;-67
2024/02/11 02:54:05;;;;;;;990.50;890.10;;;9.10;99.90;;;;;;5052013;28;20471;-67
2024/02/11 02:56:34;;;;;;;960.60;860.83;;;9.00;99.90;;;;;;5051670;28;20451;-66
2024/02/11 02:59:05;;;;;;;962.00;862.23;;;9.00;99.90;;;;;;5051678;28;20544;-66
2024/02/11 03:01:32;;;;;;;949.40;849.80;;;9.00;99.90;;;;;;5051932;28;20478;-67
2024/02/11 03:04:01;;;;;;;956.03;856.03;;;9.20;99.90;;;;;;5051602;28;20467;-66
2024/02/11 03:06:28;;;;;;;980.87;880.77;;;9.00;99.90;;;;;;5051853;28;20485;-64
2024/02/11 03:08:55;;;;;;;979.60;879.17;;;9.00;99.90;;;;;;5051555;28;20447;-67
2024/02/11 03:11:22;;;;;;;985.00;884.10;;;9.00;99.90;;;;;;5051556;28;20526;-66
2024/02/11 03:13:50;;;;;;;979.37;879.40;;;9.10;99.90;;;;;;5047331;28;20485;-67
2024/02/11 03:16:17;;;;;;;984.87;884.57;;;9.10;99.90;;;;;;5051688;28;20455;-65
2024/02/11 03:18:44;;;;;;;987.77;887.67;;;9.10;99.90;;;;;;5051747;28;20481;-67
2024/02/11 03:21:11;;;;;;;993.30;892.80;;;9.10;99.90;;;;;;5051564;28;20446;-66
2024/02/11 03:23:38;;;;;;;995.97;894.00;;;9.10;99.90;;;;;;5055606;28;20467;-66
2024/02/11 03:26:05;;;;;;;992.57;890.07;;;9.10;99.90;;;;;;5038394;28;20447;-68
2024/02/11 03:28:34;;;;;;;995.63;893.83;;;9.10;99.90;;;;;;5045687;28;20451;-68
2024/02/11 03:31:02;;;;;;;1004.77;903.60;;;9.10;99.90;;;;;;5040717;28;20447;-67
2024/02/11 03:33:30;;;;;;;1018.97;918.50;;;9.20;99.90;;;;;;5049208;28;20471;-67
2024/02/11 03:35:57;;;;;;;1012.43;912.67;;;9.20;99.90;;;;;;5050934;28;20824;-70
2024/02/11 03:38:24;;;;;;;1015.67;914.80;;;9.20;99.90;;;;;;5047097;28;20460;-67
2024/02/11 03:40:52;;;;;;;1006.23;906.43;;;9.20;99.90;;;;;;5051896;28;20505;-67
2024/02/11 03:43:19;;;;;;;1015.20;913.53;;;9.20;99.90;;;;;;5044760;28;20468;-69
2024/02/11 03:45:46;;;;;;;1014.00;912.73;;;9.30;99.90;;;;;;5043073;28;20448;-67
2024/02/11 03:48:14;;;;;;;1013.83;913.43;;;9.30;99.90;;;;;;5044684;28;20475;-67
2024/02/11 03:50:41;;;;;;;999.50;898.30;;;9.30;99.90;;;;;;5051306;28;20454;-68
2024/02/11 03:53:09;;;;;;;1014.87;913.00;;;9.40;99.90;;;;;;5051571;28;21036;-70
2024/02/11 03:55:36;;;;;;;1023.60;921.87;;;9.40;99.90;;;;;;5050444;28;20455;-67
2024/02/11 03:58:04;;;;;;;1032.47;930.17;;;9.50;99.90;;;;;;5051387;28;21028;-66
2024/02/11 04:00:32;;;;;;;1010.80;909.27;;;9.40;99.90;;;;;;5051297;28;20479;-66
2024/02/11 04:02:58;;;;;;;1014.97;913.73;;;9.40;99.90;;;;;;5051058;28;20477;-67
2024/02/11 04:05:28;;;;;;;1006.47;904.97;;;9.40;99.90;;;;;;5051016;28;20480;-67
2024/02/11 04:07:55;;;;;;;1018.40;917.20;;;9.40;99.90;;;;;;5044526;28;20451;-67
2024/02/11 04:10:28;;;;;;;1017.90;916.57;;;9.40;99.90;;;;;;5051306;28;20447;-67
2024/02/11 04:12:58;;;;;;;1029.53;927.77;;;9.40;99.90;;;;;;5050819;28;20475;-67
2024/02/11 04:15:27;;;;;;;1004.27;903.47;;;9.40;99.90;;;;;;5051338;28;20989;-67
2024/02/11 04:17:56;;;;;;;1021.83;921.40;;;9.40;99.90;;;;;;5052352;28;20443;-68
2024/02/11 04:20:24;;;;;;;1000.73;899.83;;;9.40;99.90;;;;;;5051437;28;20624;-67
2024/02/11 04:22:55;;;;;;;1017.10;915.93;;;9.40;99.90;;;;;;5051056;28;20475;-67
2024/02/11 04:25:22;;;;;;;1011.73;911.33;;;9.50;99.90;;;;;;5051472;28;20455;-68
2024/02/11 04:27:49;;;;;;;1009.30;907.67;;;9.40;99.90;;;;;;5051258;28;20461;-67
2024/02/11 04:30:19;;;;;;;1007.10;905.97;;;9.40;99.90;;;;;;5050828;28;20466;-67
2024/02/11 04:32:47;;;;;;;1006.47;906.03;;;9.40;99.90;;;;;;5050447;28;20475;-67
2024/02/11 04:35:15;;;;;;;1031.90;931.43;;;9.50;99.90;;;;;;5050897;28;20455;-68
2024/02/11 04:37:46;;;;;;;1029.87;929.27;;;9.50;99.90;;;;;;5052930;28;20463;-68
2024/02/11 04:40:16;;;;;;;1038.87;938.80;;;9.50;99.90;;;;;;5048515;28;20471;-71
2024/02/11 04:42:44;;;;;;;1054.87;954.90;;;9.60;99.90;;;;;;5045675;28;21017;-68
2024/02/11 04:45:14;;;;;;;1062.33;963.37;;;9.60;99.90;;;;;;5054474;28;20494;-68
2024/02/11 04:47:41;;;;;;;1052.30;954.30;;;9.70;99.90;;;;;;5053264;28;20454;-68
2024/02/11 04:50:11;;;;;;;1054.30;956.93;;;9.70;99.90;;;;;;5039252;28;20815;-67
2024/02/11 04:52:39;;;;;;;1040.43;944.93;;;9.80;99.90;;;;;;5052907;28;20471;-67
2024/02/11 04:55:07;;;;;;;1069.63;973.57;;;9.90;99.90;;;;;;5047259;28;20466;-66
2024/02/11 04:57:38;;;;;;;1073.30;978.00;;;9.90;99.90;;;;;;5048969;28;20460;-66
2024/02/11 05:00:23;;;;;;;1069.17;975.27;;;9.80;99.90;;;;;;5053984;28;20521;-67
2024/02/11 05:02:51;;;;;;;1038.77;945.50;;;9.80;99.90;;;;;;5048998;28;20471;-67
2024/02/11 05:05:19;;;;;;;1030.00;937.90;;;9.80;99.90;;;;;;5053412;28;20455;-66
2024/02/11 05:07:46;;;;;;;1029.40;937.40;;;9.80;99.90;;;;;;5045553;28;20448;-67
2024/02/11 05:10:13;;;;;;;1023.97;931.97;;;9.80;99.90;;;;;;5053929;28;20483;-67
2024/02/11 05:12:42;;;;;;;1030.20;937.47;;;9.80;99.90;;;;;;5051491;28;21006;-66
2024/02/11 05:15:10;;;;;;;1064.83;967.90;;;9.70;99.90;;;;;;5053864;28;20509;-66
2024/02/11 05:17:39;;;;;;;1040.57;940.63;;;9.70;99.90;;;;;;5053622;28;20879;-65
2024/02/11 05:20:12;;;;;;;1061.53;962.27;;;9.70;99.90;;;;;;5053237;28;20515;-65
2024/02/11 05:22:44;;;;;;;1057.57;959.87;;;9.70;99.90;;;;;;5053402;28;20479;-65
2024/02/11 05:25:19;;;;;;;1052.17;959.67;;;9.60;99.90;;;;;;5053899;28;20487;-65
2024/02/11 05:27:56;;;;;;;1062.47;970.17;;;9.40;99.90;;;;;;5053722;28;20473;-65
2024/02/11 05:30:25;;;;;;;1065.20;977.20;;;9.10;99.90;;;;;;5053622;28;21152;-65
2024/02/11 05:32:53;;;;;;;1073.50;987.30;;;8.80;99.90;;;;;;5053074;28;20816;-65
2024/02/11 05:35:21;;;;;;;1040.13;957.03;;;8.60;99.90;;;;;;5053621;28;20455;-64
2024/02/11 05:37:49;;;;;;;1046.10;962.67;;;8.20;99.90;;;;;;5053359;28;20451;-65
2024/02/11 05:40:16;;;;;;;1039.03;956.23;;;8.10;99.90;;;;;;5053254;28;20475;-65
2024/02/11 05:42:43;;;;;;;1051.50;967.80;;;7.90;99.90;;;;;;5052880;28;20474;-65
2024/02/11 05:45:13;;;;;;;1060.93;976.57;;;7.80;99.90;;;;;;5053150;28;20463;-65
2024/02/11 05:47:40;;;;;;;1053.30;967.50;;;7.70;99.90;;;;;;5053056;28;20473;-65
2024/02/11 05:50:08;;;;;;;1057.50;971.47;;;7.70;99.90;;;;;;5053375;28;20455;-66
2024/02/11 05:52:35;;;;;;;1070.57;983.97;;;7.70;99.90;;;;;;5052699;28;20998;-64
2024/02/11 05:55:03;;;;;;;1062.20;976.30;;;7.70;99.90;;;;;;5053273;28;20463;-66
2024/02/11 05:57:29;;;;;;;1059.17;972.87;;;7.70;99.90;;;;;;5052929;28;20451;-64
2024/02/11 05:59:57;;;;;;;1062.67;977.17;;;7.60;99.90;;;;;;5052741;28;20486;-65
2024/02/11 06:02:26;;;;;;;1030.90;946.50;;;7.70;99.90;;;;;;5052546;28;20475;-65
2024/02/11 06:04:53;;;;;;;1040.93;957.63;;;7.70;99.90;;;;;;5053092;28;20490;-66
2024/02/11 06:07:20;;;;;;;1011.67;932.23;;;7.70;99.90;;;;;;5052795;28;20565;-65
2024/02/11 06:09:48;;;;;;;980.07;902.13;;;7.70;99.90;;;;;;5052764;28;20943;-65
2024/02/11 06:12:14;;;;;;;955.73;879.93;;;7.70;99.90;;;;;;5052091;28;20580;-65
2024/02/11 06:14:41;;;;;;;968.73;892.37;;;7.70;99.90;;;;;;5052930;28;20447;-65
2024/02/11 06:17:08;;;;;;;920.10;846.63;;;7.70;99.90;;;;;;5050442;28;20454;-65
2024/02/11 06:19:39;;;;;;;897.77;826.57;;;7.70;99.90;;;;;;5050121;28;20509;-65
2024/02/11 06:22:06;;;;;;;877.47;808.53;;;7.70;99.90;;;;;;5051888;28;20451;-66
2024/02/11 06:24:33;;;;;;;853.97;788.23;;;7.80;99.90;;;;;;5052543;28;20826;-65
2024/02/11 06:27:00;;;;;;;832.93;770.33;;;7.80;99.90;;;;;;5052503;28;20520;-66
2024/02/11 06:29:27;;;;;;;832.20;771.38;;;7.80;99.90;;;;;;5052376;28;20456;-65
2024/02/11 06:31:54;;;;;;;812.70;754.47;;;7.80;99.90;;;;;;5051437;28;20742;-65
2024/02/11 06:34:22;;;;;;;822.37;765.13;;;7.80;99.90;;;;;;5052710;28;20444;-65
2024/02/11 06:36:52;;;;;;;819.20;761.30;;;7.80;99.90;;;;;;5050991;28;20546;-66
2024/02/11 06:39:47;;;;;;;837.77;778.27;;;7.80;99.90;;;;;;5048005;28;20447;-65
2024/02/11 06:42:14;;;;;;;841.13;781.23;;;7.80;99.90;;;;;;5043398;28;20487;-66
2024/02/11 06:44:41;;;;;;;847.53;786.53;;;7.80;99.90;;;;;;5052110;28;20550;-65
2024/02/11 06:47:10;;;;;;;835.33;775.93;;;7.80;99.90;;;;;;5042288;28;20452;-66
2024/02/11 06:49:38;;;;;;;833.60;774.97;;;7.90;99.90;;;;;;5049554;28;20893;-66
2024/02/11 06:52:09;;;;;;;820.73;764.83;;;7.90;99.90;;;;;;5045939;28;20452;-66
2024/02/11 06:54:38;;;;;;;819.30;764.90;;;7.90;99.90;;;;;;5052165;28;20839;-66
2024/02/11 06:57:05;;;;;;;817.13;761.90;;;7.90;99.90;;;;;;5051974;28;20459;-66
2024/02/11 06:59:32;;;;;;;824.70;767.50;;;7.90;99.90;;;;;;5046123;28;20460;-66
2024/02/11 07:01:59;;;;;;;821.60;765.53;;;8.00;99.90;;;;;;5051591;28;20459;-66
2024/02/11 07:04:27;;;;;;;831.97;776.00;;;7.90;99.90;;;;;;5051293;28;20902;-66
2024/02/11 07:06:57;;;;;;;826.60;772.33;;;7.90;99.90;;;;;;5043923;28;20450;-66
2024/02/11 07:09:25;;;;;;;823.63;768.27;;;7.90;99.90;;;;;;5052211;28;20452;-66
2024/02/11 07:11:52;;;;;;;829.83;774.40;;;7.90;99.90;;;;;;5048641;28;20447;-66
2024/02/11 07:14:19;;;;;;;829.53;773.63;;;7.90;99.90;;;;;;5040249;28;20448;-66
2024/02/11 07:16:48;;;;;;;827.50;771.37;;;7.90;99.90;;;;;;5049426;28;20447;-64
2024/02/11 07:19:15;;;;;;;818.00;762.87;;;7.90;99.90;;;;;;5047227;28;20444;-66
2024/02/11 07:21:42;;;;;;;816.80;762.50;;;7.90;99.90;;;;;;5049225;28;20749;-66
2024/02/11 07:24:09;;;;;;;823.17;768.37;;;7.90;99.90;;;;;;5042318;28;20474;-66
2024/02/11 07:26:39;;;;;;;814.47;759.60;;;7.90;99.90;;;;;;5049522;28;20482;-66
2024/02/11 07:29:08;;;;;;;810.23;756.13;;;7.90;99.90;;;;;;5039236;28;20912;-66
2024/02/11 07:31:37;;;;;;;804.47;751.57;;;8.00;99.90;;;;;;5042209;28;20928;-65
2024/02/11 07:34:04;;;;;;;813.03;760.30;;;8.10;99.90;;;;;;5046808;28;20517;-66
2024/02/11 07:36:31;;;;;;;815.00;759.67;;;8.00;99.90;;;;;;5050969;28;20455;-67
2024/02/11 07:38:58;;;;;;;808.17;751.83;;;8.00;99.90;;;;;;5051496;28;20458;-66
2024/02/11 07:41:25;;;;;;;816.63;758.17;;;8.00;99.90;;;;;;5050830;28;20479;-66
2024/02/11 07:43:54;;;;;;;818.73;760.20;;;8.00;99.90;;;;;;5051252;28;21029;-67
2024/02/11 07:46:21;;;;;;;822.67;762.90;;;8.00;99.90;;;;;;5044821;28;20944;-66
2024/02/11 07:48:49;;;;;;;829.73;768.63;;;8.00;99.90;;;;;;5048103;28;20447;-66
2024/02/11 07:51:16;;;;;;;823.53;762.07;;;8.00;99.90;;;;;;5045908;28;20449;-67
2024/02/11 07:53:42;;;;;;;820.27;759.23;;;8.00;99.90;;;;;;5047965;28;20474;-67
2024/02/11 07:56:15;;;;;;;817.30;757.07;;;8.00;99.90;;;;;;5043057;28;20466;-66
2024/02/11 07:58:42;;;;;;;817.67;756.40;;;8.10;99.90;;;;;;5046385;28;20962;-67
2024/02/11 08:01:11;;;;;;;813.07;751.27;;;8.10;99.90;;;;;;5049962;28;20478;-66
2024/02/11 08:03:38;;;;;;;811.20;750.07;;;8.10;99.90;;;;;;5048918;28;20507;-67
2024/02/11 08:06:06;;;;;;;810.17;749.50;;;8.20;99.90;;;;;;5050728;28;20447;-67
2024/02/11 08:08:33;;;;;;;803.67;743.67;;;8.20;99.90;;;;;;5051154;28;20978;-67
2024/02/11 08:11:00;;;;;;;812.40;751.90;;;8.20;99.90;;;;;;5051459;28;20458;-68
2024/02/11 08:13:27;;;;;;;809.90;750.30;;;8.20;99.90;;;;;;5046344;28;20484;-67
2024/02/11 08:15:53;;;;;;;801.90;743.43;;;8.40;99.90;;;;;;5052694;28;20447;-66
2024/02/11 08:18:21;;;;;;;804.80;748.70;;;8.30;99.90;;;;;;5050113;28;20451;-66
2024/02/11 08:20:48;;;;;;;801.63;745.83;;;8.30;99.90;;;;;;5049074;28;21057;-67
2024/02/11 08:23:15;;;;;;;804.13;747.67;;;8.40;99.90;;;;;;5049965;28;20871;-67
2024/02/11 08:25:42;;;;;;;798.07;744.03;;;8.40;99.90;;;;;;5052189;28;20447;-67
2024/02/11 08:28:09;;;;;;;800.93;747.87;;;8.40;99.90;;;;;;5051300;28;20458;-67
2024/02/11 08:30:36;;;;;;;805.73;752.73;;;8.40;99.90;;;;;;5053402;28;20501;-66
2024/02/11 08:33:04;;;;;;;807.60;754.30;;;8.40;99.90;;;;;;5053093;28;20958;-67
2024/02/11 08:35:32;;;;;;;813.90;758.00;;;8.40;99.90;;;;;;5050371;28;20448;-67
2024/02/11 08:37:59;;;;;;;812.67;756.00;;;8.50;99.90;;;;;;5048216;28;20534;-67
2024/02/11 08:40:26;;;;;;;812.80;756.43;;;8.50;99.90;;;;;;5045433;28;20842;-67
2024/02/11 08:42:53;;;;;;;813.53;757.10;;;8.50;99.90;;;;;;5052473;28;20560;-66
2024/02/11 08:45:20;;;;;;;816.07;760.07;;;8.50;99.90;;;;;;5054011;28;20455;-66
2024/02/11 08:47:46;;;;;;;813.27;757.27;;;8.50;99.90;;;;;;5053699;28;20455;-66
2024/02/11 08:50:14;;;;;;;815.90;759.83;;;8.50;99.90;;;;;;5052109;28;20449;-66
2024/02/11 08:52:43;;;;;;;820.27;762.87;;;8.50;99.90;;;;;;5048327;28;20700;-66
2024/02/11 08:55:11;;;;;;;825.60;767.53;;;8.60;99.90;;;;;;5053144;28;20455;-66
2024/02/11 08:57:38;;;;;;;833.40;774.83;;;8.60;99.90;;;;;;5061635;28;20464;-67
2024/02/11 09:00:12;;;;;;;825.83;768.70;;;8.50;99.90;;;;;;5053593;28;20463;-67
2024/02/11 09:02:39;;;;;;;822.13;768.40;;;8.60;99.90;;;;;;5053182;28;20833;-66
2024/02/11 09:05:07;;;;;;;825.63;771.20;;;8.60;99.90;;;;;;5054081;28;20458;-67
2024/02/11 09:07:34;;;;;;;822.70;768.33;;;8.60;99.90;;;;;;5052722;28;21029;-67
2024/02/11 09:10:03;;;;;;;818.20;764.10;;;8.60;99.90;;;;;;5053295;28;20847;-68
2024/02/11 09:12:29;;;;;;;818.60;764.37;;;8.70;99.90;;;;;;5053227;28;20471;-68
2024/02/11 09:14:57;;;;;;;819.83;766.10;;;8.70;99.90;;;;;;5054179;28;20455;-67
2024/02/11 09:17:24;;;;;;;804.53;753.90;;;8.80;99.90;;;;;;5047285;28;20560;-67
2024/02/11 09:19:52;;;;;;;811.80;761.07;;;8.80;99.90;;;;;;5049028;28;20447;-68
2024/02/11 09:22:19;;;;;;;808.33;757.70;;;8.90;99.90;;;;;;5050546;28;20479;-67
2024/02/11 09:24:46;;;;;;;812.20;760.40;;;8.90;99.90;;;;;;5053684;28;20454;-67
2024/02/11 09:27:14;;;;;;;809.77;759.00;;;8.90;99.90;;;;;;5053383;28;20450;-67
2024/02/11 09:29:41;;;;;;;808.90;760.70;;;9.00;99.90;;;;;;5053402;28;20462;-68
2024/02/11 09:32:08;;;;;;;808.00;758.80;;;9.00;99.90;;;;;;5052686;28;20448;-66
2024/02/11 09:34:35;;;;;;;807.53;759.40;;;9.10;99.90;;;;;;5046703;28;20451;-67
2024/02/11 09:37:02;;;;;;;795.80;753.20;;;9.10;99.90;;;;;;5052882;28;20459;-67
2024/02/11 09:39:29;;;;;;;777.93;737.20;;;9.20;99.90;;;;;;5050063;28;20447;-66
2024/02/11 09:41:56;;;;;;;741.13;706.83;;;9.30;99.90;;;;;;5035451;28;20483;-67
2024/02/11 09:44:27;;;;;;;741.50;708.70;;;9.40;99.90;;;;;;5049151;28;20454;-68
2024/02/11 09:46:56;;;;;;;750.93;717.23;;;9.50;99.90;;;;;;5051959;28;20459;-68
2024/02/11 09:49:25;;;;;;;681.83;655.03;;;9.60;99.90;;;;;;5046603;28;20451;-67
2024/02/11 09:51:55;;;;;;;733.30;702.30;;;9.60;99.90;;;;;;5052952;28;20455;-67
2024/02/11 09:54:24;;;;;;;750.17;717.37;;;9.60;99.90;;;;;;5053364;28;20891;-67
2024/02/11 09:56:51;;;;;;;702.17;673.97;;;9.60;99.90;;;;;;5053336;28;20520;-68
2024/02/11 09:59:17;;;;;;;698.37;670.57;;;9.70;99.90;;;;;;5048941;28;20467;-67
2024/02/11 10:01:48;;;;;;;631.23;607.63;;;9.70;99.90;;;;;;5052761;28;20490;-65
2024/02/11 10:04:19;;;;;;;653.63;629.47;;;9.70;99.90;;;;;;5051537;28;21046;-67
2024/02/11 10:06:47;;;;;;;621.23;599.23;;;9.80;99.90;;;;;;5044963;28;20456;-67
2024/02/11 10:09:13;;;;;;;698.63;671.50;;;9.90;99.90;;;;;;5052394;28;20512;-68
2024/02/11 10:11:40;;;;;;;704.47;677.00;;;9.90;99.90;;;;;;5052145;28;20454;-67
2024/02/11 10:14:11;;;;;;;650.17;626.47;;;10.00;99.90;;;;;;5052647;28;20471;-67
2024/02/11 10:16:39;;;;;;;582.53;562.43;;;10.10;99.90;;;;;;5052407;28;20447;-68
2024/02/11 10:19:09;;;;;;;571.50;552.07;;;10.30;99.90;;;;;;5049138;28;20606;-67
2024/02/11 10:21:36;;;;;;;450.93;436.77;;;10.40;99.90;;;;;;5043092;28;20479;-67
2024/02/11 10:24:03;;;;;;;339.63;328.73;;;10.50;99.90;;;;;;5052611;28;20486;-67
2024/02/11 10:26:31;;;;;;;130.10;125.57;;;10.50;99.90;;;;;;5052057;28;20451;-67
2024/02/11 10:28:59;;;;;;;106.57;102.37;;;10.60;99.90;;;;;;5051193;28;20481;-68
2024/02/11 10:31:29;;;;;;;75.83;72.63;;;10.60;99.90;;;;;;5051881;28;20444;-69
2024/02/11 10:33:57;;;;;;;66.10;62.93;;;10.70;99.90;;;;;;5042416;28;20467;-67
2024/02/11 10:36:26;;;;;;;52.37;49.73;;;10.80;99.90;;;;;;5045627;28;20443;-67
2024/02/11 10:38:54;;;;;;;92.83;89.23;;;10.80;99.90;;;;;;5052193;28;20455;-68
2024/02/11 10:41:23;;;;;;;97.80;93.83;;;10.90;99.90;;;;;;5052618;28;20565;-67
2024/02/11 10:43:51;;;;;;;76.30;72.73;;;10.90;99.90;;;;;;5052115;28;20852;-67
2024/02/11 10:46:18;;;;;;;51.07;48.70;;;10.90;99.90;;;;;;5051308;28;20938;-67
2024/02/11 10:48:45;;;;;;;26.93;25.00;;;10.90;99.90;;;;;;5050948;28;20887;-66
2024/02/11 10:51:14;;;;;;;15.93;14.47;;;10.90;99.90;;;;;;5049912;28;20450;-67
2024/02/11 10:53:48;;;;;;;30.07;28.00;;;10.90;99.90;;;;;;5050034;28;20527;-67
2024/02/11 10:56:18;;;;;;;62.93;59.57;;;10.90;99.90;;;;;;5055918;28;20875;-68
2024/02/11 10:58:49;;;;;;;60.53;57.80;;;10.90;99.90;;;;;;5035688;28;20917;-68
2024/02/11 11:01:19;;;;;;;73.67;70.57;;;10.90;99.90;;;;;;5039918;28;20953;-68
2024/02/11 11:03:48;;;;;;;51.93;49.10;;;11.00;99.90;;;;;;5049582;28;20537;-68
2024/02/11 11:06:18;;;;;;;50.50;46.53;;;11.00;99.90;;;;;;5046187;28;20538;-66
2024/02/11 11:08:47;;;;;;;36.10;33.70;;;11.20;99.90;;;;;;5043001;28;20506;-68
2024/02/11 11:11:25;;;;;;;15.27;13.50;;;11.20;99.90;;;;;;5044367;28;20452;-68
2024/02/11 11:13:53;;;;;;;13.43;12.20;;;11.10;99.90;;;;;;5051641;28;21093;-67
2024/02/11 11:16:24;;;;;;;12.57;10.10;;;10.90;99.90;;;;;;5051654;28;20458;-67
2024/02/11 11:18:50;;;;;;;13.23;9.77;;;10.90;99.90;;;;;;5046275;28;20455;-67
2024/02/11 11:21:17;;;;;;;11.10;8.63;;;11.00;99.90;;;;;;5051743;28;20483;-68
2024/02/11 11:23:49;;;;;;;9.33;7.43;;;11.10;99.90;;;;;;5051507;28;20879;-67
2024/02/11 11:26:20;;;;;;;9.60;8.00;;;11.10;99.90;;;;;;5050258;28;20947;-67
2024/02/11 11:28:47;;;;;;;12.83;6.00;;;11.30;99.90;;;;;;5049208;28;20462;-67
2024/02/11 11:31:14;;;;;;;9.60;5.97;;;11.50;99.90;;;;;;5051823;28;20455;-67
2024/02/11 11:33:41;;;;;;;14.97;5.07;;;11.70;99.90;;;;;;5036954;28;20499;-67
2024/02/11 11:36:09;;;;;;;8.50;4.33;;;12.00;99.90;;;;;;5050345;28;20447;-68
2024/02/11 11:38:36;;;;;;;9.87;4.57;;;12.40;99.90;;;;;;5051145;28;20463;-68
2024/02/11 11:41:06;;;;;;;7.23;3.83;;;12.80;99.90;;;;;;5050982;28;20554;-68
2024/02/11 11:43:33;;;;;;;7.00;2.70;;;13.10;99.90;;;;;;5050395;28;20478;-67
2024/02/11 11:46:03;;;;;;;11.10;2.90;;;13.70;99.90;;;;;;5044593;28;20443;-68
2024/02/11 11:48:31;;;;;;;9.30;3.00;;;14.10;99.90;;;;;;5053071;28;20538;-68
2024/02/11 11:51:00;;;;;;;9.90;2.60;;;14.20;99.90;;;;;;5055331;28;20454;-68
2024/02/11 11:53:27;;;;;;;10.03;2.83;;;14.10;99.90;;;;;;5055285;28;20475;-68
2024/02/11 11:55:56;;;;;;;8.70;3.27;;;14.00;99.90;;;;;;5047388;28;20486;-67
2024/02/11 11:58:25;;;;;;;7.17;2.90;;;13.80;99.20;;;;;;5055190;28;20487;-67
2024/02/11 12:00:57;;;;;;;11.03;2.80;;;13.50;99.10;;;;;;5055239;28;20451;-68
2024/02/11 12:03:24;;;;;;;10.47;2.70;;;13.20;99.90;;;;;;5054400;28;20475;-67
2024/02/11 12:05:51;;;;;;;6.67;2.73;;;12.90;98.90;;;;;;5048824;28;20802;-67
2024/02/11 12:08:18;;;;;;;7.40;2.83;;;12.80;99.90;;;;;;5053852;28;20837;-68
2024/02/11 12:10:55;;;;;;;5.50;2.23;;;12.90;99.90;;;;;;5054448;28;20589;-65
2024/02/11 12:13:25;;;;;;;7.63;2.60;;;13.00;99.90;;;;;;5052560;28;20479;-67
2024/02/11 12:15:52;;;;;;;8.00;2.13;;;12.70;98.70;;;;;;5054475;28;20938;-67
2024/02/11 12:18:19;;;;;;;9.83;2.80;;;12.70;99.90;;;;;;5054790;28;20461;-67
2024/02/11 12:20:47;;;;;;;14.50;4.10;;;12.80;99.90;;;;;;5049066;28;20474;-67
2024/02/11 12:23:16;;;;;;;7.90;2.40;;;12.80;99.90;;;;;;5051962;28;20483;-67